sensor_id;sensor_type;location;lat;lon;timestamp;pressure;altitude;pressure_sealevel;temperature;humidity
22651;BME280;11492;42.646;23.400;2023-06-19T00:00:50;95112.16;;;18.95;72.38
22651;BME280;11492;42.646;23.400;2023-06-19T00:03:15;95114.78;;;18.95;73.61
22651;BME280;11492;42.646;23.400;2023-06-19T00:05:41;95108.16;;;18.92;73.78
22651;BME280;11492;42.646;23.400;2023-06-19T00:08:06;95114.72;;;18.83;74.02
22651;BME280;11492;42.646;23.400;2023-06-19T00:10:33;95114.94;;;18.82;72.27
22651;BME280;11492;42.646;23.400;2023-06-19T00:12:58;95107.56;;;18.79;73.55
22651;BME280;11492;42.646;23.400;2023-06-19T00:15:24;95108.00;;;18.76;74.44
22651;BME280;11492;42.646;23.400;2023-06-19T00:17:49;95102.88;;;18.70;74.50
22651;BME280;11492;42.646;23.400;2023-06-19T00:20:15;95101.59;;;18.61;74.14
22651;BME280;11492;42.646;23.400;2023-06-19T00:22:40;95097.50;;;18.53;74.84
22651;BME280;11492;42.646;23.400;2023-06-19T00:25:06;95105.88;;;18.44;71.78
22651;BME280;11492;42.646;23.400;2023-06-19T00:27:32;95098.59;;;18.46;73.41
22651;BME280;11492;42.646;23.400;2023-06-19T00:29:57;95093.34;;;18.35;71.26
22651;BME280;11492;42.646;23.400;2023-06-19T00:32:28;95095.97;;;18.35;71.09
22651;BME280;11492;42.646;23.400;2023-06-19T00:34:54;95086.06;;;18.37;72.37
22651;BME280;11492;42.646;23.400;2023-06-19T00:37:19;95091.16;;;18.32;71.14
22651;BME280;11492;42.646;23.400;2023-06-19T00:39:45;95091.16;;;18.32;70.75
22651;BME280;11492;42.646;23.400;2023-06-19T00:42:10;95089.00;;;18.29;71.02
22651;BME280;11492;42.646;23.400;2023-06-19T00:44:36;95085.25;;;18.25;74.04
22651;BME280;11492;42.646;23.400;2023-06-19T00:47:02;95092.28;;;18.24;73.61
22651;BME280;11492;42.646;23.400;2023-06-19T00:49:29;95092.81;;;18.15;71.30
22651;BME280;11492;42.646;23.400;2023-06-19T00:51:55;95088.38;;;18.16;72.24
22651;BME280;11492;42.646;23.400;2023-06-19T00:54:21;95087.16;;;18.18;73.11
22651;BME280;11492;42.646;23.400;2023-06-19T00:56:47;95084.84;;;18.10;72.61
22651;BME280;11492;42.646;23.400;2023-06-19T00:59:18;95088.00;;;18.01;72.16
22651;BME280;11492;42.646;23.400;2023-06-19T01:01:43;95082.78;;;18.01;70.38
22651;BME280;11492;42.646;23.400;2023-06-19T01:04:09;95075.66;;;18.08;72.18
22651;BME280;11492;42.646;23.400;2023-06-19T01:07:05;95082.91;;;18.06;72.78
22651;BME280;11492;42.646;23.400;2023-06-19T01:09:45;95076.53;;;18.02;71.54
22651;BME280;11492;42.646;23.400;2023-06-19T01:12:18;95069.91;;;17.99;74.22
22651;BME280;11492;42.646;23.400;2023-06-19T01:14:53;95071.34;;;17.96;74.13
22651;BME280;11492;42.646;23.400;2023-06-19T01:17:21;95072.69;;;17.87;74.99
22651;BME280;11492;42.646;23.400;2023-06-19T01:19:47;95074.38;;;17.81;74.55
22651;BME280;11492;42.646;23.400;2023-06-19T01:22:25;95074.78;;;17.78;74.98
22651;BME280;11492;42.646;23.400;2023-06-19T01:24:51;95065.88;;;17.68;76.33
22651;BME280;11492;42.646;23.400;2023-06-19T01:27:16;95078.81;;;17.63;74.14
22651;BME280;11492;42.646;23.400;2023-06-19T01:29:42;95076.06;;;17.58;74.85
22651;BME280;11492;42.646;23.400;2023-06-19T01:32:15;95075.56;;;17.50;75.77
22651;BME280;11492;42.646;23.400;2023-06-19T01:34:42;95065.47;;;17.36;76.41
22651;BME280;11492;42.646;23.400;2023-06-19T01:37:10;95085.19;;;17.32;77.91
22651;BME280;11492;42.646;23.400;2023-06-19T01:39:37;95081.66;;;17.26;78.60
22651;BME280;11492;42.646;23.400;2023-06-19T01:42:04;95086.06;;;17.08;78.78
22651;BME280;11492;42.646;23.400;2023-06-19T01:44:30;95084.91;;;17.04;78.93
22651;BME280;11492;42.646;23.400;2023-06-19T01:46:55;95092.59;;;16.93;78.71
22651;BME280;11492;42.646;23.400;2023-06-19T01:49:21;95088.66;;;16.84;78.40
22651;BME280;11492;42.646;23.400;2023-06-19T01:51:46;95090.84;;;16.87;78.17
22651;BME280;11492;42.646;23.400;2023-06-19T01:54:12;95092.53;;;16.75;78.37
22651;BME280;11492;42.646;23.400;2023-06-19T01:56:37;95088.81;;;16.65;79.54
22651;BME280;11492;42.646;23.400;2023-06-19T01:59:03;95087.38;;;16.45;80.25
22651;BME280;11492;42.646;23.400;2023-06-19T02:01:28;95093.38;;;16.46;79.86
22651;BME280;11492;42.646;23.400;2023-06-19T02:03:54;95092.41;;;16.47;79.61
22651;BME280;11492;42.646;23.400;2023-06-19T02:06:19;95092.59;;;16.45;80.05
22651;BME280;11492;42.646;23.400;2023-06-19T02:08:47;95099.63;;;16.45;80.62
22651;BME280;11492;42.646;23.400;2023-06-19T02:11:12;95098.19;;;16.48;80.39
22651;BME280;11492;42.646;23.400;2023-06-19T02:13:37;95107.03;;;16.47;80.86
22651;BME280;11492;42.646;23.400;2023-06-19T02:16:03;95104.25;;;16.43;80.90
22651;BME280;11492;42.646;23.400;2023-06-19T02:18:29;95105.84;;;16.44;80.68
22651;BME280;11492;42.646;23.400;2023-06-19T02:20:54;95103.06;;;16.39;80.18
22651;BME280;11492;42.646;23.400;2023-06-19T02:23:19;95113.94;;;16.36;80.33
22651;BME280;11492;42.646;23.400;2023-06-19T02:25:45;95118.53;;;16.34;79.69
22651;BME280;11492;42.646;23.400;2023-06-19T02:28:10;95124.03;;;16.26;80.21
22651;BME280;11492;42.646;23.400;2023-06-19T02:30:36;95122.44;;;16.19;80.51
22651;BME280;11492;42.646;23.400;2023-06-19T02:33:01;95115.06;;;16.09;81.16
22651;BME280;11492;42.646;23.400;2023-06-19T02:35:27;95119.16;;;15.93;81.60
22651;BME280;11492;42.646;23.400;2023-06-19T02:37:52;95121.88;;;15.73;82.37
22651;BME280;11492;42.646;23.400;2023-06-19T02:40:17;95126.69;;;15.70;82.81
22651;BME280;11492;42.646;23.400;2023-06-19T02:42:43;95124.75;;;15.46;83.71
22651;BME280;11492;42.646;23.400;2023-06-19T02:45:08;95121.97;;;15.35;84.11
22651;BME280;11492;42.646;23.400;2023-06-19T02:47:34;95125.38;;;15.42;83.99
22651;BME280;11492;42.646;23.400;2023-06-19T02:50:00;95117.38;;;15.44;84.23
22651;BME280;11492;42.646;23.400;2023-06-19T02:52:27;95128.41;;;15.33;84.20
22651;BME280;11492;42.646;23.400;2023-06-19T02:54:53;95134.44;;;15.27;84.77
22651;BME280;11492;42.646;23.400;2023-06-19T02:57:19;95126.56;;;15.46;84.54
22651;BME280;11492;42.646;23.400;2023-06-19T02:59:44;95141.16;;;15.53;83.81
22651;BME280;11492;42.646;23.400;2023-06-19T03:02:11;95136.91;;;15.65;82.95
22651;BME280;11492;42.646;23.400;2023-06-19T03:04:36;95129.09;;;15.65;83.39
22651;BME280;11492;42.646;23.400;2023-06-19T03:07:02;95137.09;;;15.70;83.06
22651;BME280;11492;42.646;23.400;2023-06-19T03:09:28;95140.72;;;15.69;82.58
22651;BME280;11492;42.646;23.400;2023-06-19T03:11:53;95136.06;;;15.71;82.56
22651;BME280;11492;42.646;23.400;2023-06-19T03:14:20;95137.91;;;15.64;82.38
22651;BME280;11492;42.646;23.400;2023-06-19T03:16:45;95136.13;;;15.52;83.50
22651;BME280;11492;42.646;23.400;2023-06-19T03:19:10;95127.41;;;15.34;84.02
22651;BME280;11492;42.646;23.400;2023-06-19T03:21:36;95132.19;;;15.37;83.95
22651;BME280;11492;42.646;23.400;2023-06-19T03:24:01;95130.25;;;15.13;84.29
22651;BME280;11492;42.646;23.400;2023-06-19T03:26:27;95128.41;;;15.20;84.29
22651;BME280;11492;42.646;23.400;2023-06-19T03:28:52;95128.63;;;15.25;84.18
22651;BME280;11492;42.646;23.400;2023-06-19T03:31:18;95123.78;;;15.35;83.77
22651;BME280;11492;42.646;23.400;2023-06-19T03:33:43;95127.78;;;15.44;82.92
22651;BME280;11492;42.646;23.400;2023-06-19T03:36:09;95129.34;;;15.51;83.11
22651;BME280;11492;42.646;23.400;2023-06-19T03:38:34;95126.88;;;15.62;82.53
22651;BME280;11492;42.646;23.400;2023-06-19T03:41:00;95124.28;;;15.69;82.43
22651;BME280;11492;42.646;23.400;2023-06-19T03:43:25;95127.84;;;15.80;82.08
22651;BME280;11492;42.646;23.400;2023-06-19T03:45:51;95125.63;;;15.84;82.00
22651;BME280;11492;42.646;23.400;2023-06-19T03:48:17;95131.00;;;15.89;81.62
22651;BME280;11492;42.646;23.400;2023-06-19T03:50:43;95133.00;;;15.87;81.30
22651;BME280;11492;42.646;23.400;2023-06-19T03:53:08;95129.84;;;15.78;81.43
22651;BME280;11492;42.646;23.400;2023-06-19T03:55:34;95135.88;;;15.72;81.70
22651;BME280;11492;42.646;23.400;2023-06-19T03:57:59;95134.09;;;15.67;82.28
22651;BME280;11492;42.646;23.400;2023-06-19T04:00:25;95123.50;;;15.62;82.35
22651;BME280;11492;42.646;23.400;2023-06-19T04:02:50;95127.69;;;15.63;82.72
22651;BME280;11492;42.646;23.400;2023-06-19T04:05:16;95124.91;;;15.64;82.50
22651;BME280;11492;42.646;23.400;2023-06-19T04:07:41;95122.59;;;15.87;82.17
22651;BME280;11492;42.646;23.400;2023-06-19T04:10:07;95111.72;;;15.96;82.01
22651;BME280;11492;42.646;23.400;2023-06-19T04:12:33;95120.59;;;15.89;81.45
22651;BME280;11492;42.646;23.400;2023-06-19T04:14:59;95121.72;;;16.05;81.41
22651;BME280;11492;42.646;23.400;2023-06-19T04:17:25;95126.84;;;16.18;81.45
22651;BME280;11492;42.646;23.400;2023-06-19T04:19:50;95127.63;;;16.25;81.54
22651;BME280;11492;42.646;23.400;2023-06-19T04:22:16;95121.75;;;16.36;80.66
22651;BME280;11492;42.646;23.400;2023-06-19T04:24:41;95116.50;;;16.42;80.71
22651;BME280;11492;42.646;23.400;2023-06-19T04:27:07;95120.44;;;16.51;80.58
22651;BME280;11492;42.646;23.400;2023-06-19T04:29:34;95113.84;;;16.48;79.63
22651;BME280;11492;42.646;23.400;2023-06-19T04:31:59;95119.78;;;16.55;78.86
22651;BME280;11492;42.646;23.400;2023-06-19T04:34:25;95121.28;;;16.69;77.99
22651;BME280;11492;42.646;23.400;2023-06-19T04:36:51;95124.22;;;16.79;77.88
22651;BME280;11492;42.646;23.400;2023-06-19T04:39:17;95128.34;;;16.93;78.29
22651;BME280;11492;42.646;23.400;2023-06-19T04:41:43;95111.38;;;17.01;79.04
22651;BME280;11492;42.646;23.400;2023-06-19T04:44:12;95116.94;;;17.11;79.40
22651;BME280;11492;42.646;23.400;2023-06-19T04:46:38;95116.69;;;17.19;79.92
22651;BME280;11492;42.646;23.400;2023-06-19T04:49:04;95115.22;;;17.23;79.21
22651;BME280;11492;42.646;23.400;2023-06-19T04:51:31;95115.50;;;17.33;79.27
22651;BME280;11492;42.646;23.400;2023-06-19T04:53:58;95120.31;;;17.36;79.63
22651;BME280;11492;42.646;23.400;2023-06-19T04:56:23;95117.63;;;17.42;78.49
22651;BME280;11492;42.646;23.400;2023-06-19T04:58:49;95116.56;;;17.49;78.31
22651;BME280;11492;42.646;23.400;2023-06-19T05:01:16;95120.91;;;17.55;77.43
22651;BME280;11492;42.646;23.400;2023-06-19T05:03:46;95121.41;;;17.64;76.00
22651;BME280;11492;42.646;23.400;2023-06-19T05:06:11;95111.31;;;17.67;76.19
22651;BME280;11492;42.646;23.400;2023-06-19T05:08:37;95113.41;;;17.76;75.96
22651;BME280;11492;42.646;23.400;2023-06-19T05:11:03;95111.28;;;17.85;75.58
22651;BME280;11492;42.646;23.400;2023-06-19T05:13:28;95115.66;;;17.91;74.98
22651;BME280;11492;42.646;23.400;2023-06-19T05:15:54;95112.53;;;18.00;74.87
22651;BME280;11492;42.646;23.400;2023-06-19T05:18:21;95105.75;;;18.10;74.92
22651;BME280;11492;42.646;23.400;2023-06-19T05:20:46;95115.25;;;18.23;74.11
22651;BME280;11492;42.646;23.400;2023-06-19T05:23:12;95113.09;;;18.31;73.83
22651;BME280;11492;42.646;23.400;2023-06-19T05:25:37;95123.84;;;18.41;74.10
22651;BME280;11492;42.646;23.400;2023-06-19T05:28:03;95121.81;;;18.43;73.91
22651;BME280;11492;42.646;23.400;2023-06-19T05:30:29;95121.47;;;18.50;73.68
22651;BME280;11492;42.646;23.400;2023-06-19T05:32:54;95129.59;;;18.60;73.16
22651;BME280;11492;42.646;23.400;2023-06-19T05:35:19;95130.75;;;18.64;73.21
22651;BME280;11492;42.646;23.400;2023-06-19T05:37:45;95133.56;;;18.63;73.21
22651;BME280;11492;42.646;23.400;2023-06-19T05:40:11;95138.25;;;18.72;72.18
22651;BME280;11492;42.646;23.400;2023-06-19T05:42:36;95142.94;;;18.81;73.19
22651;BME280;11492;42.646;23.400;2023-06-19T05:45:05;95138.09;;;18.85;70.07
22651;BME280;11492;42.646;23.400;2023-06-19T05:47:30;95142.78;;;18.94;70.69
22651;BME280;11492;42.646;23.400;2023-06-19T05:49:59;95139.59;;;19.03;71.46
22651;BME280;11492;42.646;23.400;2023-06-19T05:52:25;95139.63;;;19.15;71.33
22651;BME280;11492;42.646;23.400;2023-06-19T05:54:51;95139.63;;;19.26;70.97
22651;BME280;11492;42.646;23.400;2023-06-19T05:57:18;95139.63;;;19.26;69.90
22651;BME280;11492;42.646;23.400;2023-06-19T05:59:49;95145.75;;;19.31;69.47
22651;BME280;11492;42.646;23.400;2023-06-19T06:02:16;95140.53;;;19.31;66.16
22651;BME280;11492;42.646;23.400;2023-06-19T06:04:41;95147.91;;;19.46;65.86
22651;BME280;11492;42.646;23.400;2023-06-19T06:07:08;95144.84;;;19.48;63.78
22651;BME280;11492;42.646;23.400;2023-06-19T06:09:33;95152.47;;;19.61;64.16
22651;BME280;11492;42.646;23.400;2023-06-19T06:11:59;95155.91;;;19.73;63.94
22651;BME280;11492;42.646;23.400;2023-06-19T06:14:25;95156.22;;;19.76;63.08
22651;BME280;11492;42.646;23.400;2023-06-19T06:16:51;95158.38;;;19.91;62.10
22651;BME280;11492;42.646;23.400;2023-06-19T06:19:17;95155.97;;;20.00;61.94
22651;BME280;11492;42.646;23.400;2023-06-19T06:21:42;95159.81;;;20.09;61.93
22651;BME280;11492;42.646;23.400;2023-06-19T06:24:07;95161.66;;;20.09;61.51
22651;BME280;11492;42.646;23.400;2023-06-19T06:26:33;95151.00;;;20.15;61.43
22651;BME280;11492;42.646;23.400;2023-06-19T06:28:58;95159.50;;;20.33;62.26
22651;BME280;11492;42.646;23.400;2023-06-19T06:31:24;95151.50;;;20.40;61.37
22651;BME280;11492;42.646;23.400;2023-06-19T06:33:49;95157.66;;;20.45;60.48
22651;BME280;11492;42.646;23.400;2023-06-19T06:36:15;95163.09;;;20.44;60.02
22651;BME280;11492;42.646;23.400;2023-06-19T06:38:41;95149.44;;;20.42;60.19
22651;BME280;11492;42.646;23.400;2023-06-19T06:41:06;95158.56;;;20.50;60.23
22651;BME280;11492;42.646;23.400;2023-06-19T06:43:32;95160.34;;;20.61;59.61
22651;BME280;11492;42.646;23.400;2023-06-19T06:45:57;95152.66;;;20.71;59.82
22651;BME280;11492;42.646;23.400;2023-06-19T06:48:23;95156.34;;;20.86;59.53
22651;BME280;11492;42.646;23.400;2023-06-19T06:50:48;95157.28;;;20.97;58.88
22651;BME280;11492;42.646;23.400;2023-06-19T06:53:14;95157.31;;;21.13;58.45
22651;BME280;11492;42.646;23.400;2023-06-19T06:55:39;95161.09;;;21.22;57.72
22651;BME280;11492;42.646;23.400;2023-06-19T06:58:05;95160.88;;;21.23;57.52
22651;BME280;11492;42.646;23.400;2023-06-19T07:00:30;95164.50;;;21.33;57.51
22651;BME280;11492;42.646;23.400;2023-06-19T07:02:56;95156.13;;;21.36;56.57
22651;BME280;11492;42.646;23.400;2023-06-19T07:05:21;95152.84;;;21.46;56.18
22651;BME280;11492;42.646;23.400;2023-06-19T07:07:47;95156.16;;;21.57;57.09
22651;BME280;11492;42.646;23.400;2023-06-19T07:10:12;95155.63;;;21.55;55.59
22651;BME280;11492;42.646;23.400;2023-06-19T07:12:45;95156.09;;;21.69;55.56
22651;BME280;11492;42.646;23.400;2023-06-19T07:15:10;95164.34;;;21.77;55.13
22651;BME280;11492;42.646;23.400;2023-06-19T07:17:37;95161.03;;;21.65;54.43
22651;BME280;11492;42.646;23.400;2023-06-19T07:20:02;95163.31;;;21.78;53.59
22651;BME280;11492;42.646;23.400;2023-06-19T07:22:28;95158.84;;;21.78;53.12
22651;BME280;11492;42.646;23.400;2023-06-19T07:24:54;95166.97;;;21.77;53.29
22651;BME280;11492;42.646;23.400;2023-06-19T07:27:19;95161.78;;;21.82;52.90
22651;BME280;11492;42.646;23.400;2023-06-19T07:29:44;95161.19;;;21.96;53.22
22651;BME280;11492;42.646;23.400;2023-06-19T07:32:10;95159.19;;;22.03;53.66
22651;BME280;11492;42.646;23.400;2023-06-19T07:34:35;95160.69;;;22.15;53.33
22651;BME280;11492;42.646;23.400;2023-06-19T07:37:01;95156.31;;;22.04;52.50
22651;BME280;11492;42.646;23.400;2023-06-19T07:39:26;95168.53;;;22.10;51.35
22651;BME280;11492;42.646;23.400;2023-06-19T07:41:52;95166.03;;;22.20;52.20
22651;BME280;11492;42.646;23.400;2023-06-19T07:44:17;95160.00;;;22.03;52.02
22651;BME280;11492;42.646;23.400;2023-06-19T07:46:43;95168.66;;;22.20;52.22
22651;BME280;11492;42.646;23.400;2023-06-19T07:49:09;95161.16;;;22.33;51.54
22651;BME280;11492;42.646;23.400;2023-06-19T07:51:34;95161.13;;;22.54;52.13
22651;BME280;11492;42.646;23.400;2023-06-19T07:53:59;95161.72;;;22.61;51.16
22651;BME280;11492;42.646;23.400;2023-06-19T07:56:25;95165.41;;;22.60;49.37
22651;BME280;11492;42.646;23.400;2023-06-19T07:58:50;95160.94;;;22.61;51.04
22651;BME280;11492;42.646;23.400;2023-06-19T08:01:15;95163.94;;;22.69;51.05
22651;BME280;11492;42.646;23.400;2023-06-19T08:03:42;95166.19;;;23.08;49.34
22651;BME280;11492;42.646;23.400;2023-06-19T08:06:07;95160.00;;;23.54;48.72
22651;BME280;11492;42.646;23.400;2023-06-19T08:08:33;95158.75;;;24.07;45.59
22651;BME280;11492;42.646;23.400;2023-06-19T08:10:58;95161.94;;;24.75;47.71
22651;BME280;11492;42.646;23.400;2023-06-19T08:13:23;95157.53;;;25.24;45.12
22651;BME280;11492;42.646;23.400;2023-06-19T08:15:49;95153.34;;;25.62;42.74
22651;BME280;11492;42.646;23.400;2023-06-19T08:18:14;95160.16;;;25.93;41.59
22651;BME280;11492;42.646;23.400;2023-06-19T08:20:40;95154.59;;;26.09;41.33
22651;BME280;11492;42.646;23.400;2023-06-19T08:23:05;95150.78;;;26.39;41.70
22651;BME280;11492;42.646;23.400;2023-06-19T08:25:31;95153.81;;;26.76;41.19
22651;BME280;11492;42.646;23.400;2023-06-19T08:27:56;95154.38;;;27.10;40.07
22651;BME280;11492;42.646;23.400;2023-06-19T08:30:21;95157.69;;;26.93;40.10
22651;BME280;11492;42.646;23.400;2023-06-19T08:32:47;95156.88;;;26.92;37.43
22651;BME280;11492;42.646;23.400;2023-06-19T08:35:14;95157.41;;;27.32;38.07
22651;BME280;11492;42.646;23.400;2023-06-19T08:37:40;95162.69;;;27.70;37.50
22651;BME280;11492;42.646;23.400;2023-06-19T08:40:06;95155.63;;;27.88;36.24
22651;BME280;11492;42.646;23.400;2023-06-19T08:42:34;95166.59;;;27.77;38.55
22651;BME280;11492;42.646;23.400;2023-06-19T08:45:00;95162.38;;;27.76;35.92
22651;BME280;11492;42.646;23.400;2023-06-19T08:47:30;95161.13;;;27.97;37.57
22651;BME280;11492;42.646;23.400;2023-06-19T08:49:58;95161.78;;;27.84;37.70
22651;BME280;11492;42.646;23.400;2023-06-19T08:52:23;95167.19;;;28.02;37.00
22651;BME280;11492;42.646;23.400;2023-06-19T08:54:48;95158.22;;;28.21;38.13
22651;BME280;11492;42.646;23.400;2023-06-19T08:57:14;95147.97;;;28.56;36.17
22651;BME280;11492;42.646;23.400;2023-06-19T08:59:47;95152.34;;;28.88;35.96
22651;BME280;11492;42.646;23.400;2023-06-19T09:02:12;95158.22;;;28.67;36.35
22651;BME280;11492;42.646;23.400;2023-06-19T09:04:38;95152.97;;;28.80;35.64
22651;BME280;11492;42.646;23.400;2023-06-19T09:07:04;95160.41;;;29.02;35.33
22651;BME280;11492;42.646;23.400;2023-06-19T09:09:29;95155.81;;;29.25;35.22
22651;BME280;11492;42.646;23.400;2023-06-19T09:12:07;95154.16;;;29.11;34.61
22651;BME280;11492;42.646;23.400;2023-06-19T09:14:36;95144.75;;;29.50;33.96
22651;BME280;11492;42.646;23.400;2023-06-19T09:17:04;95151.47;;;29.65;34.19
22651;BME280;11492;42.646;23.400;2023-06-19T09:19:30;95155.25;;;29.91;33.88
22651;BME280;11492;42.646;23.400;2023-06-19T09:22:04;95150.03;;;30.31;34.62
22651;BME280;11492;42.646;23.400;2023-06-19T09:24:34;95147.19;;;30.54;32.84
22651;BME280;11492;42.646;23.400;2023-06-19T09:27:13;95147.28;;;30.49;33.17
22651;BME280;11492;42.646;23.400;2023-06-19T09:29:40;95149.63;;;30.63;32.45
22651;BME280;11492;42.646;23.400;2023-06-19T09:32:23;95150.59;;;30.94;32.54
22651;BME280;11492;42.646;23.400;2023-06-19T09:34:51;95147.75;;;30.77;31.38
22651;BME280;11492;42.646;23.400;2023-06-19T09:37:25;95142.53;;;30.72;32.70
22651;BME280;11492;42.646;23.400;2023-06-19T09:39:58;95145.69;;;30.74;32.91
22651;BME280;11492;42.646;23.400;2023-06-19T09:42:31;95144.19;;;30.95;33.03
22651;BME280;11492;42.646;23.400;2023-06-19T09:45:08;95144.28;;;30.90;31.77
22651;BME280;11492;42.646;23.400;2023-06-19T09:47:38;95138.44;;;30.88;31.37
22651;BME280;11492;42.646;23.400;2023-06-19T09:50:06;95148.94;;;31.33;32.56
22651;BME280;11492;42.646;23.400;2023-06-19T09:52:33;95141.47;;;31.43;30.17
22651;BME280;11492;42.646;23.400;2023-06-19T09:55:02;95145.72;;;31.09;29.32
22651;BME280;11492;42.646;23.400;2023-06-19T09:57:28;95133.63;;;30.77;31.38
22651;BME280;11492;42.646;23.400;2023-06-19T09:59:55;95126.44;;;30.99;31.57
22651;BME280;11492;42.646;23.400;2023-06-19T10:02:25;95132.78;;;31.37;31.56
22651;BME280;11492;42.646;23.400;2023-06-19T10:04:54;95138.13;;;31.37;31.59
22651;BME280;11492;42.646;23.400;2023-06-19T10:07:32;95130.28;;;31.41;31.45
22651;BME280;11492;42.646;23.400;2023-06-19T10:10:09;95144.25;;;31.59;29.42
22651;BME280;11492;42.646;23.400;2023-06-19T10:12:45;95129.41;;;31.10;28.94
22651;BME280;11492;42.646;23.400;2023-06-19T10:15:19;95126.22;;;31.22;29.83
22651;BME280;11492;42.646;23.400;2023-06-19T10:17:49;95118.22;;;31.08;31.83
22651;BME280;11492;42.646;23.400;2023-06-19T10:20:28;95118.88;;;31.49;30.25
22651;BME280;11492;42.646;23.400;2023-06-19T10:25:23;95124.06;;;31.97;29.70
22651;BME280;11492;42.646;23.400;2023-06-19T10:27:49;95109.22;;;32.12;30.35
22651;BME280;11492;42.646;23.400;2023-06-19T10:30:18;95117.22;;;31.83;28.14
22651;BME280;11492;42.646;23.400;2023-06-19T10:32:48;95114.09;;;31.59;28.97
22651;BME280;11492;42.646;23.400;2023-06-19T10:35:14;95110.06;;;30.92;28.68
22651;BME280;11492;42.646;23.400;2023-06-19T10:37:41;95108.16;;;30.44;27.48
22651;BME280;11492;42.646;23.400;2023-06-19T10:40:07;95113.84;;;30.51;29.53
22651;BME280;11492;42.646;23.400;2023-06-19T10:42:36;95108.75;;;31.03;29.77
22651;BME280;11492;42.646;23.400;2023-06-19T10:45:03;95103.28;;;31.08;31.18
22651;BME280;11492;42.646;23.400;2023-06-19T10:47:29;95102.25;;;31.73;30.98
22651;BME280;11492;42.646;23.400;2023-06-19T10:49:54;95101.28;;;32.29;30.99
22651;BME280;11492;42.646;23.400;2023-06-19T10:52:20;95101.94;;;32.05;29.36
22651;BME280;11492;42.646;23.400;2023-06-19T10:54:45;95106.59;;;31.91;30.98
22651;BME280;11492;42.646;23.400;2023-06-19T10:57:11;95099.94;;;31.58;29.86
22651;BME280;11492;42.646;23.400;2023-06-19T10:59:38;95103.16;;;31.47;30.63
22651;BME280;11492;42.646;23.400;2023-06-19T11:02:05;95099.91;;;31.15;31.23
22651;BME280;11492;42.646;23.400;2023-06-19T11:04:31;95092.09;;;30.57;32.76
22651;BME280;11492;42.646;23.400;2023-06-19T11:06:56;95097.16;;;30.72;32.57
22651;BME280;11492;42.646;23.400;2023-06-19T11:09:22;95096.22;;;31.25;33.34
22651;BME280;11492;42.646;23.400;2023-06-19T11:11:48;95093.88;;;31.23;33.26
22651;BME280;11492;42.646;23.400;2023-06-19T11:14:15;95097.53;;;31.27;31.21
22651;BME280;11492;42.646;23.400;2023-06-19T11:16:46;95098.13;;;31.24;30.95
22651;BME280;11492;42.646;23.400;2023-06-19T11:19:20;95095.28;;;31.94;30.96
22651;BME280;11492;42.646;23.400;2023-06-19T11:21:50;95088.91;;;31.73;30.92
22651;BME280;11492;42.646;23.400;2023-06-19T11:24:16;95093.16;;;31.31;30.79
22651;BME280;11492;42.646;23.400;2023-06-19T11:26:44;95086.81;;;31.70;31.08
22651;BME280;11492;42.646;23.400;2023-06-19T11:29:19;95087.28;;;31.51;32.25
22651;BME280;11492;42.646;23.400;2023-06-19T11:31:46;95079.75;;;31.09;31.52
22651;BME280;11492;42.646;23.400;2023-06-19T11:34:12;95086.25;;;30.82;32.20
22651;BME280;11492;42.646;23.400;2023-06-19T11:36:39;95092.13;;;30.31;34.03
22651;BME280;11492;42.646;23.400;2023-06-19T11:39:10;95084.75;;;30.89;32.82
22651;BME280;11492;42.646;23.400;2023-06-19T11:41:36;95081.91;;;31.64;33.60
22651;BME280;11492;42.646;23.400;2023-06-19T11:44:07;95083.78;;;32.23;32.66
22651;BME280;11492;42.646;23.400;2023-06-19T11:46:33;95082.13;;;32.44;32.63
22651;BME280;11492;42.646;23.400;2023-06-19T11:49:17;95087.03;;;32.50;31.56
22651;BME280;11492;42.646;23.400;2023-06-19T11:51:44;95075.53;;;32.50;32.10
22651;BME280;11492;42.646;23.400;2023-06-19T11:54:11;95071.59;;;32.47;32.06
22651;BME280;11492;42.646;23.400;2023-06-19T11:56:38;95071.63;;;31.79;32.58
22651;BME280;11492;42.646;23.400;2023-06-19T11:59:04;95063.16;;;31.34;32.76
22651;BME280;11492;42.646;23.400;2023-06-19T12:01:31;95053.34;;;30.86;32.86
22651;BME280;11492;42.646;23.400;2023-06-19T12:03:57;95055.59;;;30.45;33.82
22651;BME280;11492;42.646;23.400;2023-06-19T12:06:23;95061.91;;;30.62;34.93
22651;BME280;11492;42.646;23.400;2023-06-19T12:08:48;95060.47;;;31.34;34.61
22651;BME280;11492;42.646;23.400;2023-06-19T12:11:13;95069.25;;;31.26;34.53
22651;BME280;11492;42.646;23.400;2023-06-19T12:13:42;95059.72;;;30.99;35.27
22651;BME280;11492;42.646;23.400;2023-06-19T12:16:09;95063.44;;;30.76;35.01
22651;BME280;11492;42.646;23.400;2023-06-19T12:18:35;95050.41;;;31.31;35.10
22651;BME280;11492;42.646;23.400;2023-06-19T12:21:00;95052.94;;;32.17;33.74
22651;BME280;11492;42.646;23.400;2023-06-19T12:23:26;95053.94;;;32.30;33.48
22651;BME280;11492;42.646;23.400;2023-06-19T12:25:51;95062.81;;;31.79;33.30
22651;BME280;11492;42.646;23.400;2023-06-19T12:28:17;95056.34;;;31.28;34.51
22651;BME280;11492;42.646;23.400;2023-06-19T12:30:44;95056.19;;;30.90;36.47
22651;BME280;11492;42.646;23.400;2023-06-19T12:33:10;95055.06;;;30.56;35.45
22651;BME280;11492;42.646;23.400;2023-06-19T12:35:39;95053.44;;;30.20;36.68
22651;BME280;11492;42.646;23.400;2023-06-19T12:38:05;95056.19;;;30.02;36.56
22651;BME280;11492;42.646;23.400;2023-06-19T12:40:30;95048.28;;;29.84;37.12
22651;BME280;11492;42.646;23.400;2023-06-19T12:42:56;95048.88;;;29.81;37.35
22651;BME280;11492;42.646;23.400;2023-06-19T12:45:21;95038.72;;;30.09;36.69
22651;BME280;11492;42.646;23.400;2023-06-19T12:47:50;95039.16;;;30.51;36.01
22651;BME280;11492;42.646;23.400;2023-06-19T12:50:15;95032.44;;;30.67;36.73